Fremont, NE

9:52 AM CDT on September 26, 2017 (GMT -0500)
Fremont Municipal

Weather History for KFET - February, 2013

Change the Weather History Date:

Friday, February 15, 2013

  Actual Average Record
Temperature  
Mean Temperature 22 °F -  
Max Temperature 31 °F 36 °F 61 °F (1962)
Min Temperature 12 °F 18 °F -9 °F (1958)
Degree Days  
Heating Degree Days 44    
Moisture  
Dew Point 18 °F    
Average Humidity 84    
Maximum Humidity 98    
Minimum Humidity 58    
Precipitation  
Precipitation 0.00 in - - ()
Sea Level Pressure  
Sea Level Pressure 30.32 in    
Wind  
Wind Speed 7 mph (WNW)    
Max Wind Speed 12 mph    
Max Gust Speed 16 mph    
Visibility 9 miles    
Events Snow    
Averages and records for this station are not official NWS values.
T = Trace of Precipitation, MM = Missing Value Source: NWS Daily Summary

Daily Weather History Graph

Daily Weather History Graph

Search for Another Location

Airport or City:

Trip Planner

Search our weather history database for the weather conditions in past years. The results will help you decide how hot, cold, wet, or windy it might be!

Date:

Astronomy

Feb. 15, 2013 Rise Set
Actual Time 7:20 AM CST 6:00 PM CST
Civil Twilight 6:52 AM CST 6:28 PM CST
Nautical Twilight 6:19 AM CST 7:01 PM CST
Astronomical Twilight 5:47 AM CST 7:33 PM CST
Moon 9:52 AM CST (2/15) No Moon Set
Length of Visible Light 11h 36m
Length of Day
10h 39m
Waxing Crescent, 30% of the Moon is Illuminated
Feb 15
Waxing Crescent
Feb 17
First Quarter
Feb 25
Full
Mar 4
Last Quarter
Mar 11
New

Hourly Weather History & Observations

Time (CST) Temp. Windchill Dew Point Humidity Pressure Visibility Wind Dir Wind Speed Gust Speed Precip Events Conditions
12:15 AM 19.2 °F 9.3 °F 14.0 °F 80% 30.30 in 10.0 mi NW 8.1 mph - N/A   Clear
12:35 AM 18.5 °F 6.1 °F 14.4 °F 84% 30.30 in 10.0 mi NW 11.5 mph - N/A   Clear
12:55 AM 17.8 °F 7.5 °F 14.0 °F 85% 30.31 in 10.0 mi NW 8.1 mph - N/A   Clear
1:15 AM 17.4 °F 5.4 °F 14.4 °F 88% 30.31 in 10.0 mi WNW 10.4 mph - N/A   Clear
1:35 AM 17.4 °F 5.4 °F 14.4 °F 88% 30.31 in 10.0 mi WNW 10.4 mph - N/A   Clear
1:55 AM 16.2 °F 5.5 °F 13.1 °F 88% 30.31 in 10.0 mi NW 8.1 mph - N/A   Clear
2:15 AM 15.8 °F 4.2 °F 13.3 °F 90% 30.32 in 10.0 mi West 9.2 mph - N/A   Clear
2:35 AM 15.6 °F 10.0 °F 13.1 °F 90% 30.32 in 10.0 mi WNW 3.5 mph - N/A   Clear
2:55 AM 13.8 °F 6.2 °F 12.0 °F 93% 30.32 in 10.0 mi West 4.6 mph - N/A   Clear
3:15 AM 14.0 °F 6.5 °F 12.0 °F 92% 30.32 in 10.0 mi West 4.6 mph - N/A   Clear
3:35 AM 13.1 °F 2.8 °F 10.9 °F 91% 30.32 in 10.0 mi West 6.9 mph - N/A   Clear
3:55 AM 12.2 °F 4.3 °F 10.2 °F 92% 30.32 in 10.0 mi West 4.6 mph - N/A   Clear
4:15 AM 14.0 °F 8.2 °F 10.9 °F 88% 30.33 in 10.0 mi West 3.5 mph - N/A   Clear
4:35 AM 15.6 °F 7.0 °F 11.3 °F 83% 30.33 in 10.0 mi West 5.8 mph - N/A   Clear
4:55 AM 15.8 °F 6.1 °F 12.0 °F 85% 30.33 in 10.0 mi West 6.9 mph - N/A   Clear
5:15 AM 15.3 °F 4.4 °F 12.0 °F 87% 30.34 in 10.0 mi West 8.1 mph - N/A   Clear
5:35 AM 16.5 °F 6.9 °F 12.7 °F 85% 30.35 in 10.0 mi West 6.9 mph - N/A   Mostly Cloudy
5:55 AM 16.5 °F 8.1 °F 12.7 °F 85% 30.34 in 10.0 mi West 5.8 mph - N/A   Overcast
6:15 AM 17.2 °F 6.0 °F 14.0 °F 87% 30.34 in 10.0 mi West 9.2 mph - N/A   Overcast
6:35 AM 17.6 °F 5.7 °F 14.0 °F 86% 30.35 in 10.0 mi West 10.4 mph - N/A   Overcast
6:55 AM 17.8 °F 7.5 °F 14.0 °F 85% 30.34 in 10.0 mi West 8.1 mph - N/A   Mostly Cloudy
7:15 AM 16.5 °F 6.9 °F 13.1 °F 86% 30.34 in 10.0 mi West 6.9 mph - N/A   Scattered Clouds
7:35 AM 14.4 °F 4.3 °F 11.8 °F 90% 30.34 in 10.0 mi WNW 6.9 mph - N/A   Clear
7:55 AM 15.6 °F 4.9 °F 12.7 °F 88% 30.34 in 10.0 mi West 8.1 mph - N/A   Clear
8:15 AM 16.3 °F 4.1 °F 13.1 °F 87% 30.34 in 10.0 mi West 10.4 mph - N/A   Clear
8:35 AM 16.9 °F 6.4 °F 13.8 °F 88% 30.35 in 10.0 mi West 8.1 mph - N/A   Clear
8:55 AM 19.8 °F 9.1 °F 16.0 °F 85% 30.35 in 10.0 mi West 9.2 mph - N/A   Clear
9:15 AM 22.5 °F 13.2 °F 17.4 °F 81% 30.35 in 10.0 mi WNW 8.1 mph - N/A   Clear
9:35 AM 23.2 °F 15.0 °F 18.1 °F 81% 30.35 in 10.0 mi West 6.9 mph - N/A   Clear
9:55 AM 25.7 °F 18.0 °F 19.0 °F 76% 30.35 in 10.0 mi West 6.9 mph - N/A   Clear
10:15 AM 28.0 °F 20.8 °F 19.0 °F 69% 30.34 in 10.0 mi WNW 6.9 mph - N/A   Mostly Cloudy
10:35 AM 28.8 °F 19.5 °F 17.1 °F 62% 30.35 in 10.0 mi NW 10.4 mph - N/A   Overcast
10:55 AM 29.3 °F 20.8 °F 17.1 °F 60% 30.35 in 10.0 mi NW 9.2 mph - N/A   Overcast
11:15 AM 29.1 °F 23.0 °F 16.5 °F 59% 30.34 in 10.0 mi WNW 5.8 mph - N/A   Overcast
11:55 AM 29.7 °F 26.1 °F 18.0 °F 62% 30.33 in 10.0 mi West 3.5 mph - N/A   Overcast
12:15 PM 29.5 °F - 18.0 °F 62% 30.33 in 10.0 mi Calm Calm - N/A   Overcast
12:35 PM 29.8 °F - 18.1 °F 62% 30.32 in 10.0 mi Calm Calm - N/A   Overcast
12:55 PM 30.6 °F 27.1 °F 18.9 °F 62% 30.31 in 10.0 mi WSW 3.5 mph - N/A   Overcast
1:15 PM 30.7 °F 24.9 °F 19.2 °F 62% 30.31 in 10.0 mi WSW 5.8 mph - N/A   Overcast
1:35 PM 30.4 °F 25.6 °F 17.1 °F 58% 30.30 in 10.0 mi WSW 4.6 mph - N/A   Overcast
1:55 PM 30.7 °F 27.3 °F 17.6 °F 58% 30.30 in 10.0 mi SW 3.5 mph - N/A   Overcast
2:15 PM 31.1 °F 24.5 °F 19.4 °F 62% 30.29 in 10.0 mi SW 6.9 mph - N/A   Overcast
2:35 PM 30.9 °F - 19.8 °F 63% 30.28 in 10.0 mi Calm Calm - N/A   Overcast
2:55 PM 30.9 °F 27.5 °F 20.8 °F 66% 30.28 in 10.0 mi SW 3.5 mph - N/A   Overcast
3:15 PM 31.1 °F - 20.8 °F 66% 30.28 in 10.0 mi Calm Calm - N/A   Overcast
3:35 PM 31.1 °F 25.4 °F 22.5 °F 70% 30.28 in 10.0 mi West 5.8 mph - N/A   Overcast
3:55 PM 29.3 °F 25.6 °F 27.5 °F 93% 30.28 in 1.0 mi WSW 3.5 mph - N/A Snow Light Snow
4:15 PM 29.3 °F - 28.0 °F 95% 30.28 in 1.8 mi Calm Calm - N/A Snow Light Snow
4:35 PM 30.0 °F 24.1 °F 28.6 °F 94% 30.28 in 7.0 mi WNW 5.8 mph - N/A   Mostly Cloudy
4:55 PM 30.6 °F 21.2 °F 27.0 °F 86% 30.28 in 10.0 mi WNW 11.5 mph - N/A   Overcast
5:15 PM 29.8 °F 23.0 °F 26.4 °F 87% 30.29 in 10.0 mi NNE 6.9 mph 10.4 mph N/A   Mostly Cloudy
5:35 PM 28.0 °F 22.8 °F 26.6 °F 94% 30.29 in 10.0 mi NE 4.6 mph - N/A   Overcast
5:55 PM 27.5 °F 23.6 °F 26.2 °F 95% 30.30 in 10.0 mi NNE 3.5 mph - N/A   Overcast
6:15 PM 27.3 °F 19.9 °F 25.9 °F 94% 30.31 in 10.0 mi North 6.9 mph - N/A   Overcast
6:35 PM 26.4 °F 18.9 °F 24.8 °F 94% 30.32 in 3.0 mi North 6.9 mph 16.1 mph N/A Snow Light Snow
6:55 PM 25.9 °F 18.2 °F 25.3 °F 98% 30.33 in 1.2 mi North 6.9 mph - N/A Snow Light Snow
7:15 PM 25.7 °F 17.1 °F 25.0 °F 97% 30.33 in 3.0 mi NNW 8.1 mph - N/A Snow Light Snow
7:35 PM 25.3 °F 17.6 °F 24.3 °F 96% 30.33 in 7.0 mi North 6.9 mph - N/A Snow Light Snow
7:55 PM 24.4 °F 18.6 °F 22.8 °F 94% 30.34 in 10.0 mi North 4.6 mph - N/A   Mostly Cloudy
8:15 PM 22.6 °F 16.5 °F 21.4 °F 95% 30.34 in 10.0 mi NNW 4.6 mph - N/A   Scattered Clouds
8:35 PM 21.6 °F - 20.3 °F 95% 30.34 in 10.0 mi Calm Calm - N/A   Clear
8:55 PM 20.3 °F 15.4 °F 19.8 °F 98% 30.33 in 10.0 mi NNW 3.5 mph - N/A   Clear
9:15 PM 18.3 °F 11.5 °F 17.8 °F 98% 30.34 in 10.0 mi NW 4.6 mph - N/A   Clear
9:35 PM 19.6 °F 13.0 °F 18.9 °F 97% 30.35 in 10.0 mi NNW 4.6 mph - N/A   Scattered Clouds
9:55 PM 19.4 °F 8.6 °F 18.1 °F 95% 30.35 in 10.0 mi NW 9.2 mph - N/A   Clear
10:15 PM 18.7 °F 7.8 °F 16.9 °F 93% 30.35 in 10.0 mi NW 9.2 mph - N/A   Scattered Clouds
10:35 PM 19.0 °F 12.3 °F 18.1 °F 96% 30.35 in 10.0 mi NNW 4.6 mph - N/A   Mostly Cloudy
10:55 PM 21.0 °F 13.4 °F 19.4 °F 93% 30.34 in 10.0 mi NW 5.8 mph - N/A   Overcast
11:15 PM 21.7 °F 14.3 °F 20.3 °F 94% 30.34 in 10.0 mi NW 5.8 mph - N/A   Overcast
11:35 PM 22.1 °F 17.4 °F 20.3 °F 93% 30.34 in 10.0 mi NW 3.5 mph - N/A   Overcast
11:55 PM 19.8 °F 14.7 °F 18.5 °F 95% 30.33 in 10.0 mi NW 3.5 mph - N/A   Overcast